Time;durP1;ratioP1;P1;durP2;ratioP2;P2;SDS_P1;SDS_P2;PMS_P1;PMS_P2;Temp;Humidity;BMP_temperature;BMP_pressure;BME280_temperature;BME280_humidity;BME280_pressure;Samples;Min_cycle;Max_cycle;Signal;HPM_P1;HPM_P2
2023/08/20 00:00:13;;;;;;;;;14.20;12.40;;;;;25.76;100.00;99098.09;6271600;27;97187;-69
2023/08/20 00:03:16;;;;;;;;;14.00;13.80;;;;;25.75;100.00;99092.91;6257832;27;97325;-69
2023/08/20 00:06:21;;;;;;;;;14.00;13.00;;;;;25.81;100.00;99091.63;6244728;27;96828;-69
2023/08/20 00:09:26;;;;;;;;;11.00;11.00;;;;;25.80;100.00;99092.78;6232158;28;96539;-69
2023/08/20 00:12:30;;;;;;;;;12.60;12.00;;;;;25.83;100.00;99090.19;6247268;27;98610;-69
2023/08/20 00:15:35;;;;;;;;;13.00;12.40;;;;;25.82;100.00;99090.50;6270182;27;96477;-69
2023/08/20 00:18:39;;;;;;;;;14.00;13.50;;;;;25.87;100.00;99085.66;6271830;27;96606;-68
2023/08/20 00:21:44;;;;;;;;;12.00;11.00;;;;;25.93;100.00;99097.38;6272929;27;96597;-69
2023/08/20 00:24:48;;;;;;;;;14.40;13.40;;;;;25.98;100.00;99090.91;6279645;27;96898;-69
2023/08/20 00:27:51;;;;;;;;;13.60;12.60;;;;;25.99;100.00;99095.31;6268205;27;97087;-68
2023/08/20 00:30:56;;;;;;;;;13.00;12.00;;;;;26.00;100.00;99092.19;6252199;27;96702;-69
2023/08/20 00:34:00;;;;;;;;;18.00;17.00;;;;;26.03;100.00;99076.94;6245130;27;97028;-69
2023/08/20 00:37:09;;;;;;;;;12.00;12.00;;;;;26.06;100.00;99070.78;6259020;27;96411;-69
2023/08/20 00:40:13;;;;;;;;;14.00;13.00;;;;;26.10;100.00;99071.75;6261550;27;96898;-69
2023/08/20 00:43:17;;;;;;;;;13.80;13.20;;;;;26.12;100.00;99072.28;6244821;27;96371;-69
2023/08/20 00:46:21;;;;;;;;;13.20;12.80;;;;;26.12;100.00;99077.81;6279514;27;96856;-69
2023/08/20 00:49:25;;;;;;;;;14.20;13.00;;;;;26.09;100.00;99090.31;6223919;27;97315;-69
2023/08/20 00:52:29;;;;;;;;;16.00;15.00;;;;;26.09;100.00;99070.16;6285014;27;96339;-69
2023/08/20 00:55:32;;;;;;;;;14.00;13.60;;;;;26.03;100.00;99082.47;6284701;27;96787;-69
2023/08/20 00:58:35;;;;;;;;;13.60;13.60;;;;;25.99;100.00;99079.53;6269770;27;96538;-69
2023/08/20 01:01:40;;;;;;;;;13.00;12.40;;;;;25.93;100.00;99082.75;6245214;27;96377;-69
2023/08/20 01:04:43;;;;;;;;;16.40;16.00;;;;;25.77;100.00;99066.59;6237216;27;97087;-69
2023/08/20 01:08:00;;;;;;;;;17.00;15.60;;;;;25.83;100.00;99081.91;6219116;27;96869;-69
2023/08/20 01:11:11;;;;;;;;;14.60;14.00;;;;;25.79;100.00;99075.38;6234561;28;96577;-68
2023/08/20 01:14:16;;;;;;;;;17.00;14.00;;;;;25.79;100.00;99083.66;6240701;27;96835;-69
2023/08/20 01:17:21;;;;;;;;;12.00;12.00;;;;;25.76;100.00;99075.19;6225742;27;97900;-69
2023/08/20 01:20:31;;;;;;;;;17.00;16.40;;;;;25.70;100.00;99080.06;6257037;27;97002;-69
2023/08/20 01:24:00;;;;;;;;;17.40;16.00;;;;;25.63;100.00;99073.34;6250517;27;96532;-69
2023/08/20 01:27:16;;;;;;;;;14.00;13.00;;;;;25.60;100.00;99077.56;6203544;28;98653;-69
2023/08/20 01:30:22;;;;;;;;;17.00;16.00;;;;;25.54;100.00;99078.78;6234321;27;96816;-69
2023/08/20 01:33:26;;;;;;;;;17.00;17.00;;;;;25.56;100.00;99078.50;6214846;27;97543;-69
2023/08/20 01:36:29;;;;;;;;;18.40;16.40;;;;;25.54;100.00;99076.00;6245026;27;96427;-69
2023/08/20 01:39:32;;;;;;;;;16.00;14.60;;;;;25.52;100.00;99078.25;6229002;28;98434;-69
2023/08/20 01:42:36;;;;;;;;;17.20;16.20;;;;;25.47;100.00;99081.16;6252288;27;96438;-69
2023/08/20 01:45:40;;;;;;;;;15.40;15.00;;;;;25.45;100.00;99075.97;6254355;27;96375;-69
2023/08/20 01:48:44;;;;;;;;;16.00;15.00;;;;;25.44;100.00;99073.50;6249374;27;96479;-69
2023/08/20 01:51:48;;;;;;;;;17.00;16.00;;;;;25.35;100.00;99064.38;6249986;27;96926;-69
2023/08/20 01:54:51;;;;;;;;;16.00;14.00;;;;;25.44;100.00;99079.03;6249563;27;96480;-69
2023/08/20 01:57:54;;;;;;;;;16.00;15.00;;;;;25.44;100.00;99079.84;6249056;27;96553;-68
2023/08/20 02:00:58;;;;;;;;;15.00;14.00;;;;;25.45;100.00;99083.44;6238803;27;96624;-69
2023/08/20 02:04:02;;;;;;;;;15.00;14.00;;;;;25.44;100.00;99081.78;6267939;27;96397;-69
2023/08/20 02:07:05;;;;;;;;;18.00;16.40;;;;;25.33;100.00;99077.66;6247703;27;96594;-69
2023/08/20 02:10:10;;;;;;;;;18.00;16.20;;;;;25.43;100.00;99080.97;6251334;27;98960;-69
2023/08/20 02:13:13;;;;;;;;;17.00;16.00;;;;;25.46;100.00;99087.81;6264418;27;96661;-69
2023/08/20 02:16:18;;;;;;;;;15.80;15.00;;;;;25.36;100.00;99079.78;6228671;27;98683;-69
2023/08/20 02:19:21;;;;;;;;;15.00;14.00;;;;;25.45;100.00;99080.66;6247579;27;96866;-69
2023/08/20 02:22:24;;;;;;;;;15.00;14.00;;;;;25.46;100.00;99082.31;6244198;27;96657;-68
2023/08/20 02:25:29;;;;;;;;;15.60;15.60;;;;;25.44;100.00;99084.56;6220696;27;98538;-69
2023/08/20 02:28:32;;;;;;;;;16.40;15.00;;;;;25.32;100.00;99067.72;6246940;27;96420;-69
2023/08/20 02:31:37;;;;;;;;;17.20;16.00;;;;;25.41;100.00;99091.50;6263650;27;96512;-69
2023/08/20 02:34:40;;;;;;;;;16.00;15.00;;;;;25.41;100.00;99079.66;6264407;27;97933;-69
2023/08/20 02:37:43;;;;;;;;;15.00;14.60;;;;;25.38;100.00;99092.13;6264062;27;96639;-69
2023/08/20 02:40:47;;;;;;;;;13.20;13.20;;;;;25.39;100.00;99074.47;6227051;27;97247;-69
2023/08/20 02:43:50;;;;;;;;;16.50;14.00;;;;;25.37;100.00;99076.69;6238419;27;96793;-69
2023/08/20 02:46:54;;;;;;;;;18.40;16.00;;;;;25.37;100.00;99073.94;6248288;27;96322;-69
2023/08/20 02:49:59;;;;;;;;;16.00;15.00;;;;;25.37;100.00;99082.22;6230111;27;96378;-69
2023/08/20 02:53:03;;;;;;;;;16.00;15.00;;;;;25.40;100.00;99078.84;6265243;27;97030;-69
2023/08/20 02:56:07;;;;;;;;;15.00;15.00;;;;;25.44;100.00;99073.50;6246001;27;97235;-69
2023/08/20 02:59:10;;;;;;;;;17.40;16.40;;;;;25.43;100.00;99075.44;6260189;27;97127;-69
2023/08/20 03:02:14;;;;;;;;;18.40;16.00;;;;;25.46;100.00;99076.78;6236303;27;97173;-69
2023/08/20 03:05:18;;;;;;;;;16.60;15.00;;;;;25.45;100.00;99075.97;6276937;27;96308;-69
2023/08/20 03:08:21;;;;;;;;;17.00;17.00;;;;;25.42;100.00;99090.38;6270310;27;96830;-69
2023/08/20 03:11:25;;;;;;;;;16.40;14.80;;;;;25.42;100.00;99095.91;6269731;27;96759;-69
2023/08/20 03:14:29;;;;;;;;;19.20;18.40;;;;;25.40;100.00;99084.38;6290074;27;96510;-69
2023/08/20 03:17:33;;;;;;;;;15.40;14.40;;;;;25.33;100.00;99081.22;6263160;27;96379;-69
2023/08/20 03:20:37;;;;;;;;;18.00;16.00;;;;;25.32;100.00;99092.56;6269618;27;97066;-69
2023/08/20 03:23:40;;;;;;;;;19.75;16.75;;;;;25.21;100.00;99086.50;6289890;27;96911;-69
2023/08/20 03:26:46;;;;;;;;;16.50;15.50;;;;;25.11;100.00;99096.97;6246800;27;97776;-68
2023/08/20 03:29:49;;;;;;;;;16.60;15.60;;;;;25.06;100.00;99097.09;6262886;27;96542;-69
2023/08/20 03:32:54;;;;;;;;;18.40;16.40;;;;;25.09;100.00;99102.78;6228572;27;97302;-69
2023/08/20 03:35:57;;;;;;;;;16.40;16.00;;;;;25.11;100.00;99108.00;6256095;27;98855;-69
2023/08/20 03:39:03;;;;;;;;;14.00;13.50;;;;;25.12;100.00;99098.59;6266340;27;97279;-68
2023/08/20 03:42:07;;;;;;;;;17.20;15.20;;;;;25.16;100.00;99107.88;6288376;27;97552;-69
2023/08/20 03:45:10;;;;;;;;;16.00;15.50;;;;;25.21;100.00;99102.25;6271037;27;97132;-69
2023/08/20 03:48:15;;;;;;;;;13.00;13.00;;;;;25.25;100.00;99111.53;6268887;27;96588;-69
2023/08/20 03:51:19;;;;;;;;;17.00;16.00;;;;;25.30;100.00;99116.91;6270873;27;96390;-69
2023/08/20 03:54:22;;;;;;;;;16.00;14.00;;;;;25.27;100.00;99118.34;6270689;27;97132;-69
2023/08/20 03:57:25;;;;;;;;;16.00;15.25;;;;;25.25;100.00;99115.09;6252867;27;96793;-69
2023/08/20 04:00:28;;;;;;;;;18.00;16.00;;;;;25.22;100.00;99114.88;6269803;27;96552;-69
2023/08/20 04:03:33;;;;;;;;;18.00;16.40;;;;;25.21;100.00;99124.31;6267402;27;97280;-69
2023/08/20 04:06:36;;;;;;;;;14.60;13.60;;;;;25.21;100.00;99121.56;6251648;27;98676;-69
2023/08/20 04:09:39;;;;;;;;;18.25;16.00;;;;;25.24;100.00;99110.69;6237971;27;96714;-69
2023/08/20 04:12:43;;;;;;;;;17.00;16.00;;;;;25.21;100.00;99119.63;6244614;27;97399;-69
2023/08/20 04:15:46;;;;;;;;;17.40;15.40;;;;;25.23;100.00;99124.81;6271402;27;96584;-69
2023/08/20 04:18:51;;;;;;;;;20.60;17.60;;;;;25.27;100.00;99123.03;6262249;27;97107;-69
2023/08/20 04:21:55;;;;;;;;;18.00;17.00;;;;;25.30;100.00;99123.25;6277421;27;96212;-69
2023/08/20 04:24:58;;;;;;;;;16.60;15.40;;;;;25.33;100.00;99121.81;6263471;27;98900;-69
2023/08/20 04:28:03;;;;;;;;;19.00;17.00;;;;;25.39;100.00;99126.91;6265888;27;96413;-68
2023/08/20 04:31:07;;;;;;;;;17.00;16.00;;;;;25.40;100.00;99128.53;6265165;27;97162;-69
2023/08/20 04:34:23;;;;;;;;;17.25;17.00;;;;;25.39;100.00;99126.09;6264077;27;96442;-68
2023/08/20 04:37:28;;;;;;;;;20.00;18.00;;;;;25.37;100.00;99129.16;6263624;27;97246;-68
2023/08/20 04:40:33;;;;;;;;;16.25;15.25;;;;;25.30;100.00;99131.53;6269316;27;96269;-69
2023/08/20 04:43:36;;;;;;;;;20.00;18.00;;;;;25.29;100.00;99135.41;6286412;27;96470;-69
2023/08/20 04:46:40;;;;;;;;;18.40;17.40;;;;;25.36;100.00;99132.22;6268978;27;98569;-69
2023/08/20 04:49:46;;;;;;;;;18.00;16.20;;;;;25.40;100.00;99141.53;6243847;27;97308;-69
2023/08/20 04:52:49;;;;;;;;;16.50;15.00;;;;;25.43;100.00;99129.84;6267770;27;96248;-69
2023/08/20 04:55:52;;;;;;;;;16.60;16.00;;;;;25.46;100.00;99140.28;6267218;27;96860;-69
2023/08/20 04:58:56;;;;;;;;;18.00;16.00;;;;;25.57;100.00;99138.91;6243244;27;96633;-69
2023/08/20 05:02:17;;;;;;;;;16.00;15.00;;;;;25.62;100.00;99135.19;6268689;27;96456;-69
2023/08/20 05:05:34;;;;;;;;;18.00;15.67;;;;;25.69;100.00;99141.09;6267737;27;97295;-69
2023/08/20 05:08:37;;;;;;;;;16.50;16.00;;;;;25.79;100.00;99129.81;6232171;27;97038;-69
2023/08/20 05:11:40;;;;;;;;;16.40;16.00;;;;;25.88;100.00;99139.78;6268874;27;96541;-69
2023/08/20 05:14:44;;;;;;;;;18.20;17.00;;;;;25.96;100.00;99129.88;6251276;27;96685;-69
2023/08/20 05:17:48;;;;;;;;;16.60;16.00;;;;;25.96;100.00;99110.56;6235411;27;98951;-69
2023/08/20 05:20:52;;;;;;;;;20.50;17.00;;;;;26.14;100.00;99136.34;6234778;27;96673;-69
2023/08/20 05:23:56;;;;;;;;;17.00;15.00;;;;;26.28;100.00;99134.31;6267393;27;96538;-69
2023/08/20 05:27:07;;;;;;;;;15.50;14.50;;;;;26.28;100.00;99129.59;6267288;27;96570;-69
2023/08/20 05:30:11;;;;;;;;;16.25;15.50;;;;;26.47;100.00;99134.88;6268528;27;97106;-69
2023/08/20 05:33:14;;;;;;;;;19.00;16.00;;;;;26.53;100.00;99128.06;6239809;27;96747;-69
2023/08/20 05:36:19;;;;;;;;;17.40;17.00;;;;;26.65;100.00;99133.78;6286348;27;96631;-69
2023/08/20 05:39:25;;;;;;;;;19.00;17.40;;;;;26.76;100.00;99134.31;6256249;27;96246;-69
2023/08/20 05:42:29;;;;;;;;;18.00;17.00;;;;;26.91;100.00;99144.13;6263535;27;96735;-69
2023/08/20 05:45:38;;;;;;;;;14.33;14.00;;;;;27.05;100.00;99150.34;6269205;27;96393;-69
2023/08/20 05:48:43;;;;;;;;;16.25;15.00;;;;;27.19;100.00;99147.41;6243379;27;96736;-69
2023/08/20 05:51:48;;;;;;;;;16.00;15.00;;;;;27.32;100.00;99152.00;6234674;27;96599;-69
2023/08/20 05:54:53;;;;;;;;;14.80;14.00;;;;;27.40;100.00;99151.19;6269525;27;96347;-69
2023/08/20 05:57:57;;;;;;;;;16.60;15.60;;;;;27.52;100.00;99159.66;6267531;27;96636;-69
2023/08/20 06:01:00;;;;;;;;;14.00;14.00;;;;;27.71;100.00;99162.09;6259609;27;96808;-68
2023/08/20 06:04:05;;;;;;;;;17.80;16.80;;;;;27.87;100.00;99163.22;6224465;27;96781;-69
2023/08/20 06:07:09;;;;;;;;;15.50;15.50;;;;;28.01;100.00;99164.63;6239485;27;96447;-68
2023/08/20 06:10:13;;;;;;;;;16.00;15.00;;;;;28.16;100.00;99171.66;6256295;27;96314;-69
2023/08/20 06:13:16;;;;;;;;;20.00;17.40;;;;;28.29;100.00;99170.66;6235559;27;98624;-69
2023/08/20 06:16:19;;;;;;;;;17.00;16.60;;;;;28.41;100.00;99176.28;6243218;27;96823;-68
2023/08/20 06:19:23;;;;;;;;;14.00;13.60;;;;;28.59;100.00;99171.47;6230245;28;97218;-69
2023/08/20 06:22:27;;;;;;;;;16.80;15.00;;;;;28.81;100.00;99178.75;6240395;27;98056;-69
2023/08/20 06:25:31;;;;;;;;;16.00;15.00;;;;;28.93;100.00;99172.50;6228862;28;97185;-69
2023/08/20 06:28:34;;;;;;;;;15.80;15.00;;;;;29.10;100.00;99175.16;6252610;27;96614;-69
2023/08/20 06:31:37;;;;;;;;;16.00;15.50;;;;;29.20;100.00;99175.56;6254004;27;96179;-69
2023/08/20 06:34:40;;;;;;;;;17.60;17.40;;;;;29.36;100.00;99173.03;6248536;27;97082;-69
2023/08/20 06:37:45;;;;;;;;;15.50;15.00;;;;;29.53;100.00;99180.41;6246848;27;96518;-69
2023/08/20 06:40:48;;;;;;;;;15.00;14.00;;;;;29.73;100.00;99187.91;6238433;27;96378;-69
2023/08/20 06:43:52;;;;;;;;;18.60;15.60;;;;;29.78;100.00;99190.47;6246584;27;97296;-68
2023/08/20 06:46:55;;;;;;;;;15.80;14.80;;;;;29.97;100.00;99201.13;6255222;27;96399;-69
2023/08/20 06:49:58;;;;;;;;;15.80;13.20;;;;;30.08;100.00;99191.19;6229447;27;98907;-69
2023/08/20 06:53:03;;;;;;;;;17.00;16.00;;;;;30.27;100.00;99202.59;6219743;28;98511;-68
2023/08/20 06:56:06;;;;;;;;;15.80;15.40;;;;;30.51;100.00;99191.53;6255237;27;96473;-69
2023/08/20 06:59:10;;;;;;;;;16.00;15.00;;;;;30.72;100.00;99202.59;6215751;27;98433;-69
2023/08/20 07:02:13;;;;;;;;;16.00;15.00;;;;;31.06;100.00;99208.88;6236527;27;99386;-69
2023/08/20 07:05:17;;;;;;;;;16.00;14.00;;;;;31.27;100.00;99209.53;6264966;27;96310;-69
2023/08/20 07:08:22;;;;;;;;;15.00;14.80;;;;;31.36;100.00;99197.09;6263079;27;96424;-69
2023/08/20 07:11:25;;;;;;;;;16.00;14.40;;;;;31.42;100.00;99206.81;6251387;27;96435;-69
2023/08/20 07:14:28;;;;;;;;;17.00;16.00;;;;;31.73;100.00;99200.59;6261889;27;96334;-69
2023/08/20 07:17:32;;;;;;;;;14.20;13.20;;;;;32.04;100.00;99208.28;6245682;27;97310;-68
2023/08/20 07:20:35;;;;;;;;;17.00;15.60;;;;;32.30;100.00;99210.59;6262809;27;96272;-69
2023/08/20 07:23:40;;;;;;;;;15.00;14.60;;;;;32.34;100.00;99203.13;6244840;27;98706;-69
2023/08/20 07:26:43;;;;;;;;;15.60;15.00;;;;;32.53;100.00;99208.81;6250372;27;96329;-69
2023/08/20 07:29:46;;;;;;;;;16.60;16.00;;;;;32.73;100.00;99215.34;6250321;27;96592;-69
2023/08/20 07:32:50;;;;;;;;;16.40;16.00;;;;;33.02;100.00;99208.47;6259829;27;96429;-69
2023/08/20 07:35:53;;;;;;;;;17.80;16.80;;;;;33.15;100.00;99207.16;6266159;27;96491;-68
2023/08/20 07:39:00;;;;;;;;;17.00;16.00;;;;;33.48;100.00;99212.31;6265539;27;96949;-69
2023/08/20 07:42:06;;;;;;;;;16.00;15.50;;;;;33.83;100.00;99210.31;6211246;27;97109;-68
2023/08/20 07:45:10;;;;;;;;;19.00;16.00;;;;;34.17;100.00;99207.78;6256467;27;97107;-69
2023/08/20 07:48:14;;;;;;;;;16.00;15.00;;;;;34.26;100.00;99219.56;6236685;27;96533;-69
2023/08/20 07:51:17;;;;;;;;;17.40;16.00;;;;;34.22;100.00;99215.91;6264300;27;97498;-69
2023/08/20 07:54:22;;;;;;;;;16.00;15.20;;;;;34.12;100.00;99216.47;6251115;27;96920;-68
2023/08/20 07:57:25;;;;;;;;;17.00;15.00;;;;;34.25;100.00;99215.19;6224131;27;97809;-69
2023/08/20 08:00:29;;;;;;;;;18.00;18.00;;;;;34.31;100.00;99217.28;6242645;27;98895;-69
2023/08/20 08:03:32;;;;;;;;;15.00;15.00;;;;;34.56;100.00;99209.34;6265529;27;96866;-69
2023/08/20 08:06:35;;;;;;;;;13.00;13.00;;;;;34.65;100.00;99215.50;6270431;27;98948;-69
2023/08/20 08:09:40;;;;;;;;;16.40;15.60;;;;;34.93;100.00;99214.41;6242655;27;98670;-69
2023/08/20 08:12:43;;;;;;;;;16.00;15.60;;;;;35.09;100.00;99213.03;6269475;27;96754;-69
2023/08/20 08:15:46;;;;;;;;;18.00;16.33;;;;;35.25;100.00;99212.09;6283295;27;96404;-69
2023/08/20 08:18:50;;;;;;;;;18.00;17.33;;;;;35.41;100.00;99205.16;6280130;27;96978;-69
2023/08/20 08:21:53;;;;;;;;;17.00;15.00;;;;;35.43;100.00;99210.38;6287195;27;97570;-68
2023/08/20 08:24:58;;;;;;;;;17.80;15.00;;;;;35.66;100.00;99210.31;6268038;27;96587;-70
2023/08/20 08:28:01;;;;;;;;;16.25;15.00;;;;;35.96;100.00;99211.09;6287167;27;96283;-69
2023/08/20 08:31:04;;;;;;;;;18.20;16.80;;;;;36.21;100.00;99200.19;6269738;27;96385;-69
2023/08/20 08:34:10;;;;;;;;;15.25;15.00;;;;;36.35;100.00;99195.50;6269674;27;96326;-69
2023/08/20 08:37:15;;;;;;;;;15.60;15.60;;;;;36.45;100.00;99210.84;6287988;27;97037;-69
2023/08/20 08:40:20;;;;;;;;;18.40;17.40;;;;;36.47;100.00;99208.44;6263444;27;97557;-69
2023/08/20 08:43:24;;;;;;;;;21.40;20.80;;;;;36.66;100.00;99207.44;6265164;27;96374;-70
2023/08/20 08:46:28;;;;;;;;;14.33;14.00;;;;;36.76;100.00;99212.34;6251560;27;97948;-69
2023/08/20 08:49:34;;;;;;;;;16.00;15.80;;;;;36.69;100.00;99215.91;6267443;27;96975;-70
2023/08/20 08:52:48;;;;;;;;;13.60;13.00;;;;;36.89;100.00;99199.63;6258640;27;96750;-69
2023/08/20 08:55:52;;;;;;;;;16.00;16.00;;;;;36.87;100.00;99210.44;6267415;27;98062;-69
2023/08/20 08:58:56;;;;;;;;;16.00;15.00;;;;;37.10;100.00;99204.59;6269506;27;96426;-70
2023/08/20 09:01:59;;;;;;;;;17.00;16.00;;;;;37.33;100.00;99208.00;6259427;27;97638;-69
2023/08/20 09:05:02;;;;;;;;;17.00;15.40;;;;;37.28;100.00;99171.81;6265256;27;96533;-69
2023/08/20 09:08:06;;;;;;;;;16.40;15.40;;;;;37.72;100.00;99209.03;6227209;27;98426;-69
2023/08/20 09:11:11;;;;;;;;;18.60;16.60;;;;;37.95;100.00;99210.72;6243887;27;96858;-69
2023/08/20 09:14:22;;;;;;;;;18.20;14.60;;;;;38.11;100.00;99208.41;6259176;27;96683;-69
2023/08/20 09:17:27;;;;;;;;;15.60;14.00;;;;;38.30;100.00;99210.84;6257048;27;96347;-69
2023/08/20 09:20:37;;;;;;;;;16.00;16.00;;;;;38.23;100.00;99210.81;6232717;27;98477;-70
2023/08/20 09:23:41;;;;;;;;;17.25;15.00;;;;;38.26;100.00;99203.59;6243359;27;96301;-70
2023/08/20 09:26:47;;;;;;;;;17.00;17.00;;;;;38.56;100.00;99218.19;6241028;27;96638;-69
2023/08/20 09:29:52;;;;;;;;;17.00;16.00;;;;;38.91;100.00;99218.19;6241730;27;99692;-69
2023/08/20 09:33:05;;;;;;;;;16.40;15.40;;;;;38.98;100.00;99212.56;6260675;27;96407;-70
2023/08/20 09:36:09;;;;;;;;;16.80;15.80;;;;;38.99;100.00;99214.19;6257922;27;96366;-70
2023/08/20 09:39:12;;;;;;;;;19.00;17.00;;;;;39.18;100.00;99195.22;6260592;27;96847;-69
2023/08/20 09:42:17;;;;;;;;;18.40;17.40;;;;;39.32;100.00;99207.31;6266954;27;97558;-70
2023/08/20 09:45:21;;;;;;;;;18.00;17.00;;;;;39.45;100.00;99215.31;6266134;27;96737;-69
2023/08/20 09:48:29;;;;;;;;;17.00;16.00;;;;;39.73;100.00;99212.41;6250368;27;99200;-69
2023/08/20 09:51:34;;;;;;;;;18.00;16.00;;;;;39.76;100.00;99205.97;6269579;27;96538;-70
2023/08/20 09:54:51;;;;;;;;;16.80;15.80;;;;;39.38;100.00;99199.22;6248125;27;97008;-70
2023/08/20 09:57:56;;;;;;;;;17.00;16.00;;;;;39.55;100.00;99198.34;6265672;27;96400;-69
2023/08/20 10:01:00;;;;;;;;;18.00;16.00;;;;;39.49;100.00;99202.03;6263824;27;96832;-69
2023/08/20 10:04:03;;;;;;;;;14.00;13.00;;;;;39.32;100.00;99204.47;6257253;27;96602;-69
2023/08/20 10:07:07;;;;;;;;;17.20;16.00;;;;;39.37;100.00;99198.41;6245272;27;99311;-70
2023/08/20 10:10:11;;;;;;;;;18.60;17.60;;;;;39.58;100.00;99191.09;6247520;27;96409;-69
2023/08/20 10:13:16;;;;;;;;;15.80;15.80;;;;;39.55;100.00;99192.72;6262762;27;96347;-69
2023/08/20 10:16:23;;;;;;;;;18.00;15.60;;;;;39.45;100.00;99195.56;6260124;27;96758;-69
2023/08/20 10:19:27;;;;;;;;;16.25;15.50;;;;;39.15;100.00;99194.00;6252406;27;96413;-69
2023/08/20 10:22:34;;;;;;;;;17.00;16.40;;;;;39.09;100.00;99186.38;6240767;27;97556;-69
2023/08/20 10:25:42;;;;;;;;;15.40;14.40;;;;;39.08;100.00;99194.03;6242090;27;98466;-69
2023/08/20 10:28:47;;;;;;;;;15.40;15.00;;;;;39.09;100.00;99183.56;6230179;27;98788;-70
2023/08/20 10:31:54;;;;;;;;;15.00;15.00;;;;;39.29;100.00;99181.91;6264993;27;96266;-69
2023/08/20 10:34:58;;;;;;;;;17.60;16.00;;;;;39.49;100.00;99185.88;6255861;27;96342;-70
2023/08/20 10:38:05;;;;;;;;;14.00;12.00;;;;;39.79;93.65;99183.38;6261031;27;97084;-69
2023/08/20 10:41:10;;;;;;;;;15.40;14.00;;;;;39.97;92.45;99174.81;6262450;27;97217;-69
2023/08/20 10:44:15;;;;;;;;;13.80;13.00;;;;;39.91;93.55;99170.81;6249878;27;96261;-69
2023/08/20 10:47:18;;;;;;;;;16.00;15.40;;;;;40.22;94.26;99164.19;6261146;27;96380;-70
2023/08/20 10:50:23;;;;;;;;;15.00;15.00;;;;;40.30;92.99;99144.38;6229457;27;96976;-69
2023/08/20 10:53:26;;;;;;;;;15.00;14.20;;;;;40.49;97.65;99155.13;6250532;27;96877;-69
2023/08/20 10:56:39;;;;;;;;;17.25;16.25;;;;;40.11;93.53;99154.16;6245915;27;97109;-69
2023/08/20 10:59:44;;;;;;;;;14.00;14.00;;;;;40.21;96.26;99159.78;6260004;27;96355;-70
2023/08/20 11:02:48;;;;;;;;;15.00;15.00;;;;;40.27;95.90;99150.88;6260022;27;97561;-69
2023/08/20 11:05:52;;;;;;;;;14.60;14.00;;;;;40.55;93.60;99145.78;6262590;27;99420;-69
2023/08/20 11:08:55;;;;;;;;;14.00;13.00;;;;;40.66;90.82;99157.81;6254894;27;96807;-69
2023/08/20 11:11:59;;;;;;;;;15.00;13.50;;;;;40.51;92.57;99145.03;6252831;27;98645;-69
2023/08/20 11:15:04;;;;;;;;;16.60;15.60;;;;;40.48;93.38;99145.03;6257799;27;97058;-69
2023/08/20 11:18:07;;;;;;;;;15.00;14.00;;;;;40.45;96.44;99146.69;6263392;27;96233;-69
2023/08/20 11:21:11;;;;;;;;;13.60;13.60;;;;;40.56;92.96;99153.06;6264596;27;96579;-69
2023/08/20 11:24:14;;;;;;;;;13.75;13.75;;;;;40.30;94.12;99150.03;6261049;27;98424;-70
2023/08/20 11:27:17;;;;;;;;;14.00;13.60;;;;;39.87;95.70;99150.28;6259901;27;96699;-70
2023/08/20 11:30:23;;;;;;;;;15.00;14.00;;;;;40.13;96.04;99137.59;6262322;27;97268;-70
2023/08/20 11:33:27;;;;;;;;;15.00;13.60;;;;;40.28;94.49;99135.50;6273676;27;96293;-70
2023/08/20 11:36:31;;;;;;;;;14.00;13.00;;;;;40.02;95.28;99140.50;6264812;27;96663;-70
2023/08/20 11:39:34;;;;;;;;;13.80;13.20;;;;;39.77;98.17;99137.03;6253862;27;96853;-70
2023/08/20 11:42:38;;;;;;;;;16.00;15.00;;;;;39.53;97.38;99144.38;6268336;27;97076;-69
2023/08/20 11:45:50;;;;;;;;;16.00;15.00;;;;;39.52;96.08;99148.41;6267457;27;96458;-69
2023/08/20 11:49:00;;;;;;;;;15.00;15.00;;;;;39.59;98.87;99139.06;6263954;27;96829;-70
2023/08/20 11:52:04;;;;;;;;;12.75;12.00;;;;;39.46;99.80;99137.94;6262153;27;97434;-69
2023/08/20 11:55:09;;;;;;;;;13.50;13.50;;;;;39.56;100.00;99134.25;6255333;27;96584;-69
2023/08/20 11:58:13;;;;;;;;;14.00;12.60;;;;;39.84;95.34;99129.31;6257189;27;96630;-70
2023/08/20 12:01:18;;;;;;;;;14.00;13.20;;;;;39.84;94.89;99122.84;6270026;27;96389;-70
2023/08/20 12:04:25;;;;;;;;;17.00;15.00;;;;;39.75;95.51;99111.19;6242414;27;98614;-70
2023/08/20 12:07:30;;;;;;;;;14.00;14.00;;;;;39.79;97.73;99126.91;6229913;27;96866;-69
2023/08/20 12:10:33;;;;;;;;;13.50;13.00;;;;;40.07;97.58;99120.31;6259572;27;96539;-70
2023/08/20 12:13:37;;;;;;;;;14.00;13.00;;;;;40.27;95.69;99109.31;6256919;27;96541;-70
2023/08/20 12:16:41;;;;;;;;;13.00;13.00;;;;;40.40;96.29;99116.03;6220654;27;99388;-69
2023/08/20 12:19:44;;;;;;;;;14.00;13.00;;;;;40.37;96.02;99114.03;6266085;27;96369;-70
2023/08/20 12:22:48;;;;;;;;;16.00;15.60;;;;;40.51;96.27;99110.31;6237495;27;96843;-69
2023/08/20 12:25:53;;;;;;;;;17.00;16.00;;;;;40.57;93.36;99103.78;6244458;27;98045;-69
2023/08/20 12:28:56;;;;;;;;;15.00;13.50;;;;;40.72;92.38;99114.97;6244765;27;96387;-69
2023/08/20 12:32:01;;;;;;;;;17.00;16.00;;;;;40.81;92.83;99110.44;6225849;27;96742;-69
2023/08/20 12:35:05;;;;;;;;;16.00;16.00;;;;;40.42;92.67;99102.28;6240938;27;96797;-69
2023/08/20 12:38:08;;;;;;;;;17.00;15.20;;;;;40.23;97.66;99109.31;6259596;27;96744;-70
2023/08/20 12:41:11;;;;;;;;;18.25;15.00;;;;;40.58;94.01;99101.75;6256682;27;97200;-69
2023/08/20 12:44:14;;;;;;;;;18.60;17.00;;;;;40.77;90.32;99103.22;6261691;27;96706;-70
2023/08/20 12:47:19;;;;;;;;;19.00;18.00;;;;;40.65;89.11;99096.88;6244071;27;97085;-70
2023/08/20 12:50:22;;;;;;;;;19.80;17.20;;;;;40.54;91.60;99095.34;6243941;27;96963;-70
2023/08/20 12:53:25;;;;;;;;;17.50;16.00;;;;;40.57;93.73;99098.13;6229279;27;96663;-71
2023/08/20 12:56:29;;;;;;;;;18.00;17.50;;;;;40.40;92.23;99103.94;6250187;27;96344;-70
2023/08/20 12:59:32;;;;;;;;;19.00;18.00;;;;;40.26;92.92;99099.22;6255534;27;96702;-69
2023/08/20 13:02:37;;;;;;;;;16.40;15.40;;;;;40.35;92.89;99093.88;6247627;27;96770;-69
2023/08/20 13:05:41;;;;;;;;;17.00;17.00;;;;;40.57;95.33;99091.66;6244173;27;96746;-69
2023/08/20 13:08:45;;;;;;;;;14.80;14.80;;;;;40.72;90.70;99092.34;6255422;27;96742;-70
2023/08/20 13:11:49;;;;;;;;;16.60;16.00;;;;;40.55;89.52;99088.47;6259170;27;96809;-70
2023/08/20 13:14:52;;;;;;;;;16.80;15.80;;;;;40.57;88.88;99092.47;6234504;27;96638;-69
2023/08/20 13:17:58;;;;;;;;;17.00;16.00;;;;;40.64;89.32;99091.63;6261763;27;96336;-70
2023/08/20 13:21:01;;;;;;;;;16.00;15.00;;;;;40.45;88.83;99090.16;6238516;27;96728;-70
2023/08/20 13:24:06;;;;;;;;;17.50;16.50;;;;;40.29;89.94;99083.44;6251938;27;97238;-69
2023/08/20 13:27:09;;;;;;;;;18.25;17.50;;;;;40.31;92.79;99081.00;6240957;27;96856;-69
2023/08/20 13:30:13;;;;;;;;;18.00;18.00;;;;;40.14;89.85;99086.34;6237285;27;96953;-70
2023/08/20 13:33:18;;;;;;;;;18.00;17.40;;;;;40.00;91.10;99085.66;6250203;27;96452;-69
2023/08/20 13:36:21;;;;;;;;;16.60;16.00;;;;;39.80;91.74;99083.34;6259933;27;96394;-70
2023/08/20 13:39:25;;;;;;;;;18.75;18.00;;;;;39.56;95.64;99089.91;6280020;27;96369;-70
2023/08/20 13:42:28;;;;;;;;;20.20;18.20;;;;;39.50;97.08;99082.28;6243926;27;97157;-69
2023/08/20 13:45:32;;;;;;;;;18.40;18.00;;;;;39.53;95.61;99087.13;6254106;27;96335;-70
2023/08/20 13:48:36;;;;;;;;;16.00;15.00;;;;;39.56;96.27;99089.91;6261599;27;96273;-70
2023/08/20 13:51:40;;;;;;;;;23.00;20.50;;;;;39.49;95.48;99089.16;6243590;27;96307;-70
2023/08/20 13:54:43;;;;;;;;;19.00;18.00;;;;;39.27;96.19;99075.13;6236441;27;97098;-69
2023/08/20 13:57:46;;;;;;;;;21.33;20.00;;;;;38.94;99.40;99072.81;6249836;27;97621;-70
2023/08/20 14:00:49;;;;;;;;;18.00;17.40;;;;;38.81;99.88;99072.41;6226533;27;97720;-70